createdAt,value
2023-06-02T00:01:33.122Z,95953.44
2023-06-02T00:04:01.131Z,95959.88
2023-06-02T00:06:32.080Z,95949.66
2023-06-02T00:08:59.256Z,95945.84
2023-06-02T00:11:26.526Z,95960.66
2023-06-02T00:13:53.245Z,95964.44
2023-06-02T00:16:19.864Z,95956.47
2023-06-02T00:18:46.502Z,95959.88
2023-06-02T00:21:13.623Z,95939.00
2023-06-02T00:23:40.112Z,95957.56
2023-06-02T00:26:06.615Z,95960.25
2023-06-02T00:28:33.118Z,95962.50
2023-06-02T00:30:59.683Z,95967.81
2023-06-02T00:33:26.220Z,95966.66
2023-06-02T00:35:52.822Z,95959.06
2023-06-02T00:38:19.282Z,95966.28
2023-06-02T00:40:45.925Z,95963.25
2023-06-02T00:43:12.638Z,95966.59
2023-06-02T00:45:39.150Z,95959.41
2023-06-02T00:48:06.277Z,95965.09
2023-06-02T00:50:33.643Z,95962.47
2023-06-02T00:53:01.064Z,95968.88
2023-06-02T00:55:31.431Z,95960.13
2023-06-02T00:58:00.089Z,95964.72
2023-06-02T01:00:28.032Z,95954.88
2023-06-02T01:02:55.099Z,95966.22
2023-06-02T01:05:21.852Z,95960.13
2023-06-02T01:07:52.436Z,95961.63
2023-06-02T01:10:22.410Z,95969.59
2023-06-02T01:12:50.087Z,95969.22
2023-06-02T01:15:16.699Z,95968.34
2023-06-02T01:17:46.719Z,95959.97
2023-06-02T01:20:16.545Z,95946.31
2023-06-02T01:23:06.377Z,95960.38
2023-06-02T01:25:33.619Z,95952.78
2023-06-02T01:28:00.270Z,95955.44
2023-06-02T01:30:27.347Z,95960.34
2023-06-02T01:33:10.561Z,95953.47
2023-06-02T01:35:43.988Z,95964.50
2023-06-02T01:38:11.534Z,95965.28
2023-06-02T01:40:39.185Z,95950.06
2023-06-02T01:43:07.072Z,95950.06
2023-06-02T01:45:34.792Z,95934.44
2023-06-02T01:48:06.063Z,95940.53
2023-06-02T01:50:35.317Z,95944.38
2023-06-02T01:53:01.944Z,95944.78
2023-06-02T01:55:28.640Z,95947.06
2023-06-02T01:57:55.193Z,95940.22
2023-06-02T02:00:22.118Z,95942.16
2023-06-02T02:02:51.678Z,95942.91
2023-06-02T02:05:18.770Z,95944.81
2023-06-02T02:07:47.111Z,95941.41
2023-06-02T02:10:14.381Z,95936.50
2023-06-02T02:12:41.598Z,95934.22
2023-06-02T02:15:08.629Z,95922.44
2023-06-02T02:17:36.151Z,95924.69
2023-06-02T02:20:06.822Z,95936.44
2023-06-02T02:22:33.783Z,95928.44
2023-06-02T02:25:00.904Z,95933.78
2023-06-02T02:27:28.057Z,95941.34
2023-06-02T02:29:54.649Z,95930.72
2023-06-02T02:32:21.569Z,95898.91
2023-06-02T02:34:49.522Z,95940.34
2023-06-02T02:37:17.770Z,95942.19
2023-06-02T02:39:44.336Z,95945.25
2023-06-02T02:42:11.007Z,95939.88
2023-06-02T02:44:37.559Z,95934.13
2023-06-02T02:47:04.175Z,95938.31
2023-06-02T02:49:30.754Z,95945.59
2023-06-02T02:51:57.883Z,95938.06
2023-06-02T02:54:25.197Z,95942.22
2023-06-02T02:56:52.219Z,95937.28
2023-06-02T02:59:18.786Z,95932.72
2023-06-02T03:01:47.771Z,95938.06
2023-06-02T03:04:23.306Z,95944.16
2023-06-02T03:06:51.476Z,95938.47
2023-06-02T03:09:18.008Z,95919.09
2023-06-02T03:11:44.759Z,95939.13
2023-06-02T03:14:11.585Z,95935.00
2023-06-02T03:16:43.192Z,95935.41
2023-06-02T03:19:10.109Z,95924.78
2023-06-02T03:21:43.278Z,95928.13
2023-06-02T03:24:17.703Z,95935.34
2023-06-02T03:26:45.203Z,95939.19
2023-06-02T03:29:13.673Z,95939.53
2023-06-02T03:31:42.617Z,95938.81
2023-06-02T03:34:09.292Z,95925.16
2023-06-02T03:36:36.328Z,95930.44
2023-06-02T03:39:06.844Z,95941.00
2023-06-02T03:41:34.741Z,95938.06
2023-06-02T03:44:02.353Z,95935.44
2023-06-02T03:46:29.309Z,95942.31
2023-06-02T03:48:56.336Z,95944.19
2023-06-02T03:51:23.169Z,95946.88
2023-06-02T03:53:52.540Z,95949.53
2023-06-02T03:56:21.100Z,95957.13
2023-06-02T03:58:47.664Z,95965.16
2023-06-02T04:01:14.807Z,95959.91
2023-06-02T04:03:42.880Z,95967.91
2023-06-02T04:06:09.997Z,95973.63
2023-06-02T04:08:37.061Z,95973.25
2023-06-02T04:11:04.232Z,95976.31
2023-06-02T04:13:31.076Z,95973.00
2023-06-02T04:15:57.797Z,95983.28
2023-06-02T04:18:24.352Z,95963.56
2023-06-02T04:20:50.942Z,95975.78
2023-06-02T04:23:17.504Z,95977.75
2023-06-02T04:25:44.132Z,95965.91
2023-06-02T04:28:10.644Z,95969.75
2023-06-02T04:30:39.934Z,95966.91
2023-06-02T04:33:06.559Z,95963.44
2023-06-02T04:35:33.888Z,95973.03
2023-06-02T04:38:00.477Z,95967.94
2023-06-02T04:40:26.926Z,95978.72
2023-06-02T04:42:53.461Z,95970.41
2023-06-02T04:45:21.643Z,95975.84
2023-06-02T04:47:49.138Z,95972.53
2023-06-02T04:50:15.943Z,95971.19
2023-06-02T04:52:43.804Z,95975.00
2023-06-02T04:55:11.522Z,95973.44
2023-06-02T04:57:38.767Z,95977.63
2023-06-02T05:00:06.504Z,95985.50
2023-06-02T05:02:33.444Z,95983.13
2023-06-02T05:05:00.392Z,95969.03
2023-06-02T05:07:27.090Z,95973.28
2023-06-02T05:09:53.615Z,95992.88
2023-06-02T05:12:20.199Z,95994.94
2023-06-02T05:14:46.803Z,95995.41
2023-06-02T05:17:13.359Z,95987.91
2023-06-02T05:19:46.672Z,95981.16
2023-06-02T05:22:13.790Z,95994.69
2023-06-02T05:24:40.406Z,95987.19
2023-06-02T05:27:08.310Z,95980.97
2023-06-02T05:29:34.853Z,95971.38
2023-06-02T05:32:01.454Z,95987.31
2023-06-02T05:34:28.034Z,95985.16
2023-06-02T05:36:54.595Z,95992.38
2023-06-02T05:39:21.112Z,95990.16
2023-06-02T05:41:47.576Z,95993.84
2023-06-02T05:44:14.137Z,95998.53
2023-06-02T05:46:40.966Z,95997.50
2023-06-02T05:49:07.472Z,96002.13
2023-06-02T05:51:33.983Z,95993.47
2023-06-02T05:54:01.415Z,95991.34
2023-06-02T05:56:27.940Z,96001.97
2023-06-02T05:58:54.451Z,96010.69
2023-06-02T06:01:20.919Z,96002.06
2023-06-02T06:03:47.491Z,95998.19
2023-06-02T06:06:14.038Z,96005.34
2023-06-02T06:08:41.204Z,95994.31
2023-06-02T06:11:07.717Z,96007.88
2023-06-02T06:13:34.517Z,96003.09
2023-06-02T06:16:01.167Z,96010.69
2023-06-02T06:18:27.852Z,96023.97
2023-06-02T06:20:54.414Z,96024.09
2023-06-02T06:23:21.137Z,96029.03
2023-06-02T06:25:47.772Z,96036.25
2023-06-02T06:28:14.341Z,96037.28
2023-06-02T06:30:41.258Z,96033.94
2023-06-02T06:33:09.870Z,96037.91
2023-06-02T06:35:36.793Z,96031.22
2023-06-02T06:38:04.750Z,96035.56
2023-06-02T06:40:32.561Z,96036.53
2023-06-02T06:43:02.964Z,96033.81
2023-06-02T06:45:34.915Z,96033.06
2023-06-02T06:48:01.527Z,96030.41
2023-06-02T06:50:28.757Z,96034.22
2023-06-02T06:52:55.509Z,96032.06
2023-06-02T06:55:22.050Z,96043.47
2023-06-02T06:57:48.637Z,96032.16
2023-06-02T07:00:15.970Z,96042.34
2023-06-02T07:02:44.832Z,96039.53
2023-06-02T07:05:11.874Z,96045.84
2023-06-02T07:07:38.466Z,96051.38
2023-06-02T07:10:05.823Z,96050.63
2023-06-02T07:12:32.430Z,96046.28
2023-06-02T07:14:59.158Z,96057.75
2023-06-02T07:17:26.198Z,96048.84
2023-06-02T07:19:53.159Z,96044.75
2023-06-02T07:22:19.753Z,96050.13
2023-06-02T07:24:53.820Z,96056.06
2023-06-02T07:27:21.496Z,96046.91
2023-06-02T07:29:49.478Z,96048.53
2023-06-02T07:32:23.239Z,96047.81
2023-06-02T07:34:52.819Z,96046.28
2023-06-02T07:37:24.715Z,96055.72
2023-06-02T07:39:55.649Z,96045.19
2023-06-02T07:42:25.168Z,96047.41
2023-06-02T07:44:51.747Z,96051.13
2023-06-02T07:47:18.416Z,96056.06
2023-06-02T07:49:45.188Z,96044.44
2023-06-02T07:52:11.913Z,96047.94
2023-06-02T07:54:41.167Z,96045.75
2023-06-02T07:57:10.431Z,96050.84
2023-06-02T07:59:38.158Z,96045.34
2023-06-02T08:02:08.314Z,96047.09
2023-06-02T08:04:40.424Z,96034.53
2023-06-02T08:07:12.081Z,96032.06
2023-06-02T08:13:26.008Z,96038.06
2023-06-02T08:16:19.839Z,96040.41
2023-06-02T08:18:47.011Z,96034.22
2023-06-02T08:21:18.444Z,96034.34
2023-06-02T08:23:50.596Z,96035.28
2023-06-02T08:26:23.990Z,96039.53
2023-06-02T08:43:25.615Z,96041.38
2023-06-02T09:45:55.106Z,96052.66
2023-06-02T09:48:31.457Z,96059.47
2023-06-02T09:51:07.084Z,96058.16
2023-06-02T09:53:44.365Z,96047.63
2023-06-02T09:56:18.376Z,96053.59
2023-06-02T09:58:52.823Z,96048.94
2023-06-02T10:13:26.733Z,96055.22
2023-06-02T10:16:26.504Z,96061.47
2023-06-02T10:19:11.273Z,96049.75
2023-06-02T10:22:03.698Z,96054.03
2023-06-02T10:24:57.911Z,96051.34
2023-06-02T10:27:41.833Z,96052.94
2023-06-02T10:38:49.605Z,96049.16
2023-06-02T10:41:26.418Z,96043.56
2023-06-02T10:44:29.775Z,96038.31
2023-06-02T10:47:22.510Z,96041.97
2023-06-02T10:50:09.338Z,96031.00
2023-06-02T10:53:04.013Z,96033.84
2023-06-02T10:55:36.771Z,96033.28
2023-06-02T10:58:09.014Z,96041.38
2023-06-02T11:00:40.694Z,96030.84
2023-06-02T11:03:12.888Z,96034.69
2023-06-02T11:05:44.994Z,96028.44
2023-06-02T11:08:20.998Z,96029.44
2023-06-02T11:11:03.711Z,96027.81
2023-06-02T11:13:35.737Z,96027.56
2023-06-02T11:16:05.772Z,96031.50
2023-06-02T11:18:32.811Z,96022.72
2023-06-02T11:21:06.070Z,96028.28
2023-06-02T11:23:37.322Z,96020.38
2023-06-02T11:26:12.338Z,96015.94
2023-06-02T11:28:47.658Z,96024.63
2023-06-02T11:31:24.561Z,96020.69
2023-06-02T11:36:43.294Z,96023.00
2023-06-02T11:39:19.911Z,96011.84
2023-06-02T11:41:57.621Z,95997.41
2023-06-02T11:51:58.084Z,96008.63
2023-06-02T12:13:41.566Z,96004.50
2023-06-02T12:31:19.589Z,95998.16
2023-06-02T12:33:46.936Z,96005.97
2023-06-02T12:36:14.369Z,96003.56
2023-06-02T12:43:28.312Z,95995.06
2023-06-02T12:46:00.344Z,96000.84
2023-06-02T12:48:31.605Z,95999.31
2023-06-02T12:51:06.126Z,95997.28
2023-06-02T12:53:40.391Z,96004.84
2023-06-02T12:56:08.536Z,95995.91
2023-06-02T12:58:35.445Z,96009.06
2023-06-02T13:01:02.638Z,96002.44
2023-06-02T13:04:32.323Z,95998.03
2023-06-02T13:07:06.923Z,95995.19
2023-06-02T13:13:29.752Z,95988.97
2023-06-02T13:16:03.068Z,95991.41
2023-06-02T13:18:30.365Z,95984.25
2023-06-02T13:21:50.074Z,95988.03
2023-06-02T13:35:45.085Z,95979.72
2023-06-02T14:13:40.370Z,95987.25
2023-06-02T14:16:27.547Z,95981.25
2023-06-02T14:19:02.605Z,95985.28
2023-06-02T14:21:35.284Z,95990.50
2023-06-02T14:24:09.521Z,95987.63
2023-06-02T14:26:40.756Z,95985.16
2023-06-02T14:45:17.478Z,95983.06
2023-06-02T15:15:49.211Z,95964.72
2023-06-02T15:20:59.321Z,95975.88
2023-06-02T15:23:39.292Z,95973.28
2023-06-02T15:26:14.032Z,95968.78
2023-06-02T15:28:45.691Z,95981.81
2023-06-02T15:31:17.688Z,95979.75
2023-06-02T15:33:50.856Z,95967.09
2023-06-02T15:36:23.341Z,95976.16
2023-06-02T15:38:55.687Z,95967.72
2023-06-02T15:41:29.935Z,95969.50
2023-06-02T15:44:01.154Z,95966.66
2023-06-02T15:46:32.094Z,95969.56
2023-06-02T15:49:07.649Z,95968.94
2023-06-02T15:51:42.289Z,95968.78
2023-06-02T15:54:14.419Z,95972.69
2023-06-02T15:56:54.185Z,95980.03
2023-06-02T15:59:27.709Z,95972.56
2023-06-02T16:02:00.135Z,95968.78
2023-06-02T16:04:30.573Z,95969.91
2023-06-02T16:07:10.312Z,95967.50
2023-06-02T16:09:42.239Z,95963.59
2023-06-02T16:12:09.492Z,95969.00
2023-06-02T16:14:37.703Z,95970.03
2023-06-02T16:17:07.881Z,95970.38
2023-06-02T16:22:44.524Z,95958.81
2023-06-02T16:25:14.756Z,95961.78
2023-06-02T16:27:45.067Z,95961.50
2023-06-02T16:30:16.323Z,95948.56
2023-06-02T16:32:44.424Z,95957.00
2023-06-02T16:35:15.217Z,95955.66
2023-06-02T16:37:42.268Z,95968.84
2023-06-02T16:40:09.867Z,95958.50
2023-06-02T16:42:36.647Z,95963.59
2023-06-02T16:45:03.549Z,95955.19
2023-06-02T16:47:30.472Z,95952.94
2023-06-02T16:49:57.735Z,95957.44
2023-06-02T16:52:24.997Z,95959.38
2023-06-02T16:55:01.598Z,95965.69
2023-06-02T16:57:29.354Z,95967.94
2023-06-02T16:59:56.176Z,95962.06
2023-06-02T17:02:23.630Z,95961.63
2023-06-02T17:04:50.328Z,95960.84
2023-06-02T17:07:17.310Z,95961.09
2023-06-02T17:09:43.915Z,95958.97
2023-06-02T17:12:10.542Z,95960.50
2023-06-02T17:14:37.377Z,95974.47
2023-06-02T17:17:04.227Z,95971.63
2023-06-02T17:19:30.964Z,95973.63
2023-06-02T17:21:57.808Z,95972.47
2023-06-02T17:24:26.305Z,95968.06
2023-06-02T17:26:53.128Z,95979.72
2023-06-02T17:29:19.821Z,95983.72
2023-06-02T17:31:46.478Z,95982.28
2023-06-02T17:34:13.360Z,95991.47
2023-06-02T17:36:42.649Z,95989.44
2023-06-02T17:39:09.434Z,95989.28
2023-06-02T17:41:36.267Z,95999.22
2023-06-02T17:44:02.882Z,95994.41
2023-06-02T17:46:30.484Z,95996.72
2023-06-02T17:48:57.451Z,96005.09
2023-06-02T17:51:26.079Z,95988.19
2023-06-02T17:53:52.847Z,96007.91
2023-06-02T17:56:19.910Z,95996.84
2023-06-02T17:58:46.684Z,96008.22
2023-06-02T18:01:13.426Z,96011.72
2023-06-02T18:03:40.145Z,96019.16
2023-06-02T18:06:07.556Z,96016.59
2023-06-02T18:08:34.043Z,96014.44
2023-06-02T18:11:00.555Z,96018.97
2023-06-02T18:13:27.245Z,95995.28
2023-06-02T18:15:53.796Z,96016.69
2023-06-02T18:18:20.341Z,96017.03
2023-06-02T18:20:47.420Z,96011.97
2023-06-02T18:23:13.940Z,96027.09
2023-06-02T18:25:41.123Z,96022.75
2023-06-02T18:28:07.644Z,96026.09
2023-06-02T18:30:34.098Z,96022.00
2023-06-02T18:33:00.809Z,96029.72
2023-06-02T18:35:27.352Z,96028.44
2023-06-02T18:37:56.443Z,96036.66
2023-06-02T18:40:23.622Z,96040.00
2023-06-02T18:42:50.698Z,96044.25
2023-06-02T18:45:17.205Z,96034.63
2023-06-02T18:47:43.763Z,96050.19
2023-06-02T18:50:10.611Z,96056.09
2023-06-02T18:52:37.419Z,96053.81
2023-06-02T18:55:04.146Z,96065.81
2023-06-02T18:57:30.702Z,96058.44
2023-06-02T18:59:57.699Z,96067.50
2023-06-02T19:02:24.256Z,96053.03
2023-06-02T19:04:52.599Z,96073.75
2023-06-02T19:07:19.218Z,96084.22
2023-06-02T19:09:45.929Z,96057.06
2023-06-02T19:12:12.423Z,96085.81
2023-06-02T19:14:38.919Z,96085.59
2023-06-02T19:17:06.332Z,96096.81
2023-06-02T19:19:32.917Z,96097.31
2023-06-02T19:21:59.397Z,96095.53
2023-06-02T19:24:25.891Z,96104.78
2023-06-02T19:26:52.616Z,96117.59
2023-06-02T19:29:19.663Z,96104.03
2023-06-02T19:31:46.830Z,96113.34
2023-06-02T19:34:13.373Z,96112.31
2023-06-02T19:36:41.444Z,96112.22
2023-06-02T19:39:09.280Z,96114.41
2023-06-02T19:41:36.054Z,96113.50
2023-06-02T19:44:02.898Z,96117.41
2023-06-02T19:46:29.622Z,96122.53
2023-06-02T19:48:56.377Z,96124.09
2023-06-02T19:51:22.878Z,96129.91
2023-06-02T19:53:49.423Z,96131.13
2023-06-02T19:56:16.014Z,96104.41
2023-06-02T19:58:42.745Z,96134.81
2023-06-02T20:01:09.728Z,96137.53
2023-06-02T20:03:36.635Z,96136.78
2023-06-02T20:06:03.357Z,96142.59
2023-06-02T20:08:29.984Z,96143.84
2023-06-02T20:10:56.543Z,96146.34
2023-06-02T20:13:23.283Z,96146.44
2023-06-02T20:15:50.409Z,96152.59
2023-06-02T20:18:17.241Z,96152.16
2023-06-02T20:20:43.950Z,96150.72
2023-06-02T20:23:10.458Z,96161.88
2023-06-02T20:25:36.924Z,96160.03
2023-06-02T20:28:04.751Z,96156.34
2023-06-02T20:30:31.683Z,96165.53
2023-06-02T20:32:59.104Z,96171.63
2023-06-02T20:35:25.941Z,96168.34
2023-06-02T20:37:52.460Z,96176.38
2023-06-02T20:40:19.317Z,96179.88
2023-06-02T20:42:46.008Z,96163.22
2023-06-02T20:45:14.149Z,96172.72
2023-06-02T20:47:41.534Z,96172.75
2023-06-02T20:50:08.495Z,96172.00
2023-06-02T20:52:35.037Z,96183.84
2023-06-02T20:55:01.954Z,96196.47
2023-06-02T20:57:28.477Z,96187.38
2023-06-02T20:59:55.008Z,96194.22
2023-06-02T21:02:21.653Z,96195.06
2023-06-02T21:04:48.122Z,96198.84
2023-06-02T21:07:14.628Z,96190.25
2023-06-02T21:09:41.150Z,96200.09
2023-06-02T21:12:08.286Z,96206.28
2023-06-02T21:14:34.808Z,96201.31
2023-06-02T21:17:01.442Z,96200.63
2023-06-02T21:19:28.018Z,96197.56
2023-06-02T21:21:54.539Z,96198.78
2023-06-02T21:24:21.104Z,96195.38
2023-06-02T21:26:47.571Z,96187.38
2023-06-02T21:29:14.113Z,96199.63
2023-06-02T21:34:22.045Z,96188.97
2023-06-02T21:36:48.510Z,96195.78
2023-06-02T21:39:14.971Z,96201.94
2023-06-02T21:41:43.384Z,96215.28
2023-06-02T21:44:09.809Z,96210.75
2023-06-02T21:46:36.632Z,96206.94
2023-06-02T21:51:41.597Z,96211.16
2023-06-02T21:54:08.141Z,96208.91
2023-06-02T21:56:35.932Z,96207.03
2023-06-02T21:59:04.790Z,96214.63
2023-06-02T22:01:31.955Z,96211.22
2023-06-02T22:03:58.782Z,96191.84
2023-06-02T22:06:25.919Z,96201.34
2023-06-02T22:08:52.514Z,96209.34
2023-06-02T22:11:23.894Z,96209.38
2023-06-02T22:13:51.668Z,96217.38
2023-06-02T22:16:18.437Z,96215.88
2023-06-02T22:18:45.122Z,96210.19
2023-06-02T22:21:12.950Z,96208.31
2023-06-02T22:23:39.542Z,96218.56
2023-06-02T22:26:06.094Z,96215.16
2023-06-02T22:28:32.910Z,96224.69
2023-06-02T22:30:59.447Z,96214.00
2023-06-02T22:33:26.047Z,96218.97
2023-06-02T22:35:52.555Z,96212.50
2023-06-02T22:38:19.122Z,96203.78
2023-06-02T22:40:45.688Z,96207.19
2023-06-02T22:43:12.154Z,96193.88
2023-06-02T22:45:38.667Z,96220.50
2023-06-02T22:48:05.277Z,96214.03
2023-06-02T22:50:31.883Z,96219.00
2023-06-02T22:52:58.696Z,96213.66
2023-06-02T22:55:25.252Z,96214.06
2023-06-02T22:57:51.816Z,96211.00
2023-06-02T23:00:18.341Z,96211.78
2023-06-02T23:02:44.943Z,96201.50
2023-06-02T23:05:11.473Z,96217.09
2023-06-02T23:07:39.748Z,96213.66
2023-06-02T23:10:07.005Z,96214.44
2023-06-02T23:12:33.463Z,96189.34
2023-06-02T23:14:59.968Z,96198.84
2023-06-02T23:17:26.550Z,96189.34
2023-06-02T23:19:53.042Z,96201.91
2023-06-02T23:22:19.707Z,96198.09
2023-06-02T23:24:46.263Z,96192.75
2023-06-02T23:27:13.916Z,96191.25
2023-06-02T23:29:41.372Z,96185.94
2023-06-02T23:32:08.141Z,96190.47
2023-06-02T23:34:34.915Z,96181.75
2023-06-02T23:37:01.416Z,96188.19
2023-06-02T23:39:27.917Z,96190.47
2023-06-02T23:41:54.395Z,96195.03
2023-06-02T23:44:21.729Z,96192.75
2023-06-02T23:46:48.365Z,96184.41
2023-06-02T23:49:15.048Z,96185.16
2023-06-02T23:51:41.946Z,96176.41
2023-06-02T23:54:08.505Z,96182.88
2023-06-02T23:56:35.058Z,96187.03
2023-06-02T23:59:01.612Z,96188.19
